sensor_id;sensor_type;location;lat;lon;timestamp;P1;durP1;ratioP1;P2;durP2;ratioP2
9160;SDS011;4615;51.340;8.288;2023-05-20T00:00:37;3.85;;;2.60;;
9160;SDS011;4615;51.340;8.288;2023-05-20T00:03:04;7.30;;;2.90;;
9160;SDS011;4615;51.340;8.288;2023-05-20T00:05:30;3.47;;;2.70;;
9160;SDS011;4615;51.340;8.288;2023-05-20T00:07:58;3.03;;;2.70;;
9160;SDS011;4615;51.340;8.288;2023-05-20T00:10:24;3.53;;;2.60;;
9160;SDS011;4615;51.340;8.288;2023-05-20T00:12:51;5.68;;;2.80;;
9160;SDS011;4615;51.340;8.288;2023-05-20T00:15:17;3.25;;;2.63;;
9160;SDS011;4615;51.340;8.288;2023-05-20T00:17:44;3.10;;;2.70;;
9160;SDS011;4615;51.340;8.288;2023-05-20T00:20:10;4.80;;;2.72;;
9160;SDS011;4615;51.340;8.288;2023-05-20T00:22:37;3.22;;;2.70;;
9160;SDS011;4615;51.340;8.288;2023-05-20T00:25:05;3.90;;;2.95;;
9160;SDS011;4615;51.340;8.288;2023-05-20T00:27:31;3.45;;;2.67;;
9160;SDS011;4615;51.340;8.288;2023-05-20T00:29:58;3.50;;;2.80;;
9160;SDS011;4615;51.340;8.288;2023-05-20T00:32:24;4.25;;;2.65;;
9160;SDS011;4615;51.340;8.288;2023-05-20T00:34:56;3.58;;;2.90;;
9160;SDS011;4615;51.340;8.288;2023-05-20T00:37:23;3.67;;;2.95;;
9160;SDS011;4615;51.340;8.288;2023-05-20T00:39:49;3.80;;;2.85;;
9160;SDS011;4615;51.340;8.288;2023-05-20T00:42:20;3.55;;;2.72;;
9160;SDS011;4615;51.340;8.288;2023-05-20T00:44:46;3.80;;;2.60;;
9160;SDS011;4615;51.340;8.288;2023-05-20T00:47:13;2.97;;;2.70;;
9160;SDS011;4615;51.340;8.288;2023-05-20T00:49:39;3.07;;;2.70;;
9160;SDS011;4615;51.340;8.288;2023-05-20T00:52:06;3.25;;;2.55;;
9160;SDS011;4615;51.340;8.288;2023-05-20T00:54:33;2.83;;;2.50;;
9160;SDS011;4615;51.340;8.288;2023-05-20T00:56:59;2.95;;;2.42;;
9160;SDS011;4615;51.340;8.288;2023-05-20T00:59:28;4.70;;;2.87;;
9160;SDS011;4615;51.340;8.288;2023-05-20T01:01:54;2.70;;;2.50;;
9160;SDS011;4615;51.340;8.288;2023-05-20T01:04:21;4.28;;;2.78;;
9160;SDS011;4615;51.340;8.288;2023-05-20T01:06:48;2.97;;;2.75;;
9160;SDS011;4615;51.340;8.288;2023-05-20T01:09:14;4.55;;;2.80;;
9160;SDS011;4615;51.340;8.288;2023-05-20T01:11:41;2.70;;;2.50;;
9160;SDS011;4615;51.340;8.288;2023-05-20T01:14:08;3.00;;;2.60;;
9160;SDS011;4615;51.340;8.288;2023-05-20T01:16:37;3.72;;;2.60;;
9160;SDS011;4615;51.340;8.288;2023-05-20T01:19:05;3.38;;;2.80;;
9160;SDS011;4615;51.340;8.288;2023-05-20T01:21:34;3.95;;;2.78;;
9160;SDS011;4615;51.340;8.288;2023-05-20T01:24:02;3.08;;;2.78;;
9160;SDS011;4615;51.340;8.288;2023-05-20T01:26:29;3.90;;;2.72;;
9160;SDS011;4615;51.340;8.288;2023-05-20T01:28:57;3.08;;;2.78;;
9160;SDS011;4615;51.340;8.288;2023-05-20T01:31:29;3.85;;;3.05;;
9160;SDS011;4615;51.340;8.288;2023-05-20T01:33:57;3.63;;;2.83;;
9160;SDS011;4615;51.340;8.288;2023-05-20T01:36:23;4.13;;;2.70;;
9160;SDS011;4615;51.340;8.288;2023-05-20T01:38:51;3.53;;;2.83;;
9160;SDS011;4615;51.340;8.288;2023-05-20T01:41:19;5.50;;;3.10;;
9160;SDS011;4615;51.340;8.288;2023-05-20T01:43:47;3.60;;;2.95;;
9160;SDS011;4615;51.340;8.288;2023-05-20T01:46:13;3.65;;;3.10;;
9160;SDS011;4615;51.340;8.288;2023-05-20T01:48:40;3.63;;;2.90;;
9160;SDS011;4615;51.340;8.288;2023-05-20T01:51:07;4.30;;;3.05;;
9160;SDS011;4615;51.340;8.288;2023-05-20T01:53:33;5.07;;;2.90;;
9160;SDS011;4615;51.340;8.288;2023-05-20T01:55:59;3.53;;;3.00;;
9160;SDS011;4615;51.340;8.288;2023-05-20T01:58:27;3.10;;;2.90;;
9160;SDS011;4615;51.340;8.288;2023-05-20T02:00:54;3.22;;;2.90;;
9160;SDS011;4615;51.340;8.288;2023-05-20T02:03:20;3.30;;;2.93;;
9160;SDS011;4615;51.340;8.288;2023-05-20T02:05:46;7.05;;;3.25;;
9160;SDS011;4615;51.340;8.288;2023-05-20T02:08:13;3.42;;;2.88;;
9160;SDS011;4615;51.340;8.288;2023-05-20T02:10:39;3.67;;;3.10;;
9160;SDS011;4615;51.340;8.288;2023-05-20T02:13:06;3.53;;;3.10;;
9160;SDS011;4615;51.340;8.288;2023-05-20T02:15:33;4.53;;;2.95;;
9160;SDS011;4615;51.340;8.288;2023-05-20T02:18:00;3.53;;;3.08;;
9160;SDS011;4615;51.340;8.288;2023-05-20T02:20:26;3.75;;;3.22;;
9160;SDS011;4615;51.340;8.288;2023-05-20T02:22:53;3.30;;;3.00;;
9160;SDS011;4615;51.340;8.288;2023-05-20T02:25:19;3.65;;;3.10;;
9160;SDS011;4615;51.340;8.288;2023-05-20T02:27:45;3.60;;;3.10;;
9160;SDS011;4615;51.340;8.288;2023-05-20T02:30:12;3.30;;;3.00;;
9160;SDS011;4615;51.340;8.288;2023-05-20T02:32:40;3.47;;;3.17;;
9160;SDS011;4615;51.340;8.288;2023-05-20T02:35:07;6.07;;;3.30;;
9160;SDS011;4615;51.340;8.288;2023-05-20T02:37:34;4.80;;;3.10;;
9160;SDS011;4615;51.340;8.288;2023-05-20T02:40:00;3.67;;;3.05;;
9160;SDS011;4615;51.340;8.288;2023-05-20T02:42:26;3.70;;;3.30;;
9160;SDS011;4615;51.340;8.288;2023-05-20T02:44:53;3.58;;;3.28;;
9160;SDS011;4615;51.340;8.288;2023-05-20T02:47:22;3.70;;;3.38;;
9160;SDS011;4615;51.340;8.288;2023-05-20T02:49:50;3.40;;;3.10;;
9160;SDS011;4615;51.340;8.288;2023-05-20T02:52:16;5.20;;;3.40;;
9160;SDS011;4615;51.340;8.288;2023-05-20T02:54:43;3.88;;;3.40;;
9160;SDS011;4615;51.340;8.288;2023-05-20T02:57:09;3.53;;;3.22;;
9160;SDS011;4615;51.340;8.288;2023-05-20T02:59:36;4.03;;;3.25;;
9160;SDS011;4615;51.340;8.288;2023-05-20T03:02:03;3.83;;;3.50;;
9160;SDS011;4615;51.340;8.288;2023-05-20T03:04:29;5.50;;;3.20;;
9160;SDS011;4615;51.340;8.288;2023-05-20T03:06:57;4.30;;;3.90;;
9160;SDS011;4615;51.340;8.288;2023-05-20T03:09:23;4.40;;;3.50;;
9160;SDS011;4615;51.340;8.288;2023-05-20T03:11:50;5.07;;;3.40;;
9160;SDS011;4615;51.340;8.288;2023-05-20T03:14:16;3.78;;;3.47;;
9160;SDS011;4615;51.340;8.288;2023-05-20T03:16:42;3.75;;;3.33;;
9160;SDS011;4615;51.340;8.288;2023-05-20T03:19:09;4.30;;;3.33;;
9160;SDS011;4615;51.340;8.288;2023-05-20T03:21:36;5.93;;;3.60;;
9160;SDS011;4615;51.340;8.288;2023-05-20T03:24:04;4.00;;;3.65;;
9160;SDS011;4615;51.340;8.288;2023-05-20T03:26:30;4.47;;;3.28;;
9160;SDS011;4615;51.340;8.288;2023-05-20T03:28:57;3.55;;;3.25;;
9160;SDS011;4615;51.340;8.288;2023-05-20T03:31:24;3.80;;;3.50;;
9160;SDS011;4615;51.340;8.288;2023-05-20T03:33:51;4.60;;;3.28;;
9160;SDS011;4615;51.340;8.288;2023-05-20T03:36:17;4.13;;;3.40;;
9160;SDS011;4615;51.340;8.288;2023-05-20T03:38:44;4.35;;;3.65;;
9160;SDS011;4615;51.340;8.288;2023-05-20T03:41:11;5.40;;;3.50;;
9160;SDS011;4615;51.340;8.288;2023-05-20T03:43:38;4.10;;;3.67;;
9160;SDS011;4615;51.340;8.288;2023-05-20T03:46:04;5.07;;;3.55;;
9160;SDS011;4615;51.340;8.288;2023-05-20T03:48:31;3.63;;;3.30;;
9160;SDS011;4615;51.340;8.288;2023-05-20T03:50:57;3.95;;;3.45;;
9160;SDS011;4615;51.340;8.288;2023-05-20T03:53:23;4.10;;;3.40;;
9160;SDS011;4615;51.340;8.288;2023-05-20T03:55:50;3.75;;;3.42;;
9160;SDS011;4615;51.340;8.288;2023-05-20T03:58:18;4.03;;;3.30;;
9160;SDS011;4615;51.340;8.288;2023-05-20T04:00:46;4.30;;;3.30;;
9160;SDS011;4615;51.340;8.288;2023-05-20T04:03:12;4.57;;;3.63;;
9160;SDS011;4615;51.340;8.288;2023-05-20T04:05:39;4.13;;;3.50;;
9160;SDS011;4615;51.340;8.288;2023-05-20T04:08:06;4.78;;;3.50;;
9160;SDS011;4615;51.340;8.288;2023-05-20T04:10:34;6.65;;;3.47;;
9160;SDS011;4615;51.340;8.288;2023-05-20T04:13:00;3.65;;;3.22;;
9160;SDS011;4615;51.340;8.288;2023-05-20T04:15:28;4.30;;;3.40;;
9160;SDS011;4615;51.340;8.288;2023-05-20T04:17:55;3.80;;;3.17;;
9160;SDS011;4615;51.340;8.288;2023-05-20T04:20:21;3.50;;;3.20;;
9160;SDS011;4615;51.340;8.288;2023-05-20T04:22:48;3.60;;;3.30;;
9160;SDS011;4615;51.340;8.288;2023-05-20T04:25:14;4.87;;;3.40;;
9160;SDS011;4615;51.340;8.288;2023-05-20T04:27:41;4.53;;;3.50;;
9160;SDS011;4615;51.340;8.288;2023-05-20T04:30:07;4.38;;;3.40;;
9160;SDS011;4615;51.340;8.288;2023-05-20T04:32:36;4.27;;;3.70;;
9160;SDS011;4615;51.340;8.288;2023-05-20T04:35:03;4.18;;;3.78;;
9160;SDS011;4615;51.340;8.288;2023-05-20T04:37:32;5.05;;;3.70;;
9160;SDS011;4615;51.340;8.288;2023-05-20T04:39:58;4.47;;;4.07;;
9160;SDS011;4615;51.340;8.288;2023-05-20T04:42:27;4.72;;;3.83;;
9160;SDS011;4615;51.340;8.288;2023-05-20T04:44:53;4.15;;;3.75;;
9160;SDS011;4615;51.340;8.288;2023-05-20T04:47:20;4.37;;;3.97;;
9160;SDS011;4615;51.340;8.288;2023-05-20T04:49:48;5.50;;;4.32;;
9160;SDS011;4615;51.340;8.288;2023-05-20T04:52:14;5.88;;;4.50;;
9160;SDS011;4615;51.340;8.288;2023-05-20T04:54:40;6.13;;;4.77;;
9160;SDS011;4615;51.340;8.288;2023-05-20T04:57:07;6.05;;;4.30;;
9160;SDS011;4615;51.340;8.288;2023-05-20T04:59:33;5.18;;;4.68;;
9160;SDS011;4615;51.340;8.288;2023-05-20T05:02:00;4.50;;;4.07;;
9160;SDS011;4615;51.340;8.288;2023-05-20T05:04:26;5.30;;;4.50;;
9160;SDS011;4615;51.340;8.288;2023-05-20T05:06:54;4.60;;;4.20;;
9160;SDS011;4615;51.340;8.288;2023-05-20T05:09:20;7.00;;;4.50;;
9160;SDS011;4615;51.340;8.288;2023-05-20T05:11:46;4.68;;;4.07;;
9160;SDS011;4615;51.340;8.288;2023-05-20T05:14:13;4.35;;;3.92;;
9160;SDS011;4615;51.340;8.288;2023-05-20T05:16:39;4.18;;;3.78;;
9160;SDS011;4615;51.340;8.288;2023-05-20T05:19:08;4.97;;;4.45;;
9160;SDS011;4615;51.340;8.288;2023-05-20T05:21:34;5.80;;;4.60;;
9160;SDS011;4615;51.340;8.288;2023-05-20T05:24:02;5.38;;;4.45;;
9160;SDS011;4615;51.340;8.288;2023-05-20T05:26:28;4.65;;;4.25;;
9160;SDS011;4615;51.340;8.288;2023-05-20T05:28:55;5.15;;;4.70;;
9160;SDS011;4615;51.340;8.288;2023-05-20T05:31:21;5.47;;;4.97;;
9160;SDS011;4615;51.340;8.288;2023-05-20T05:33:47;5.38;;;4.80;;
9160;SDS011;4615;51.340;8.288;2023-05-20T05:36:16;6.60;;;5.45;;
9160;SDS011;4615;51.340;8.288;2023-05-20T05:38:42;5.82;;;5.22;;
9160;SDS011;4615;51.340;8.288;2023-05-20T05:41:10;5.93;;;5.30;;
9160;SDS011;4615;51.340;8.288;2023-05-20T05:43:36;5.82;;;4.95;;
9160;SDS011;4615;51.340;8.288;2023-05-20T05:46:03;7.25;;;5.45;;
9160;SDS011;4615;51.340;8.288;2023-05-20T05:48:30;5.40;;;4.80;;
9160;SDS011;4615;51.340;8.288;2023-05-20T05:50:56;5.80;;;5.20;;
9160;SDS011;4615;51.340;8.288;2023-05-20T05:53:22;5.45;;;4.95;;
9160;SDS011;4615;51.340;8.288;2023-05-20T05:55:49;5.40;;;4.90;;
9160;SDS011;4615;51.340;8.288;2023-05-20T05:58:17;5.95;;;4.97;;
9160;SDS011;4615;51.340;8.288;2023-05-20T06:00:43;5.63;;;4.93;;
9160;SDS011;4615;51.340;8.288;2023-05-20T06:03:09;6.70;;;5.22;;
9160;SDS011;4615;51.340;8.288;2023-05-20T06:05:36;5.82;;;4.95;;
9160;SDS011;4615;51.340;8.288;2023-05-20T06:08:02;5.68;;;5.10;;
9160;SDS011;4615;51.340;8.288;2023-05-20T06:10:29;7.07;;;5.03;;
9160;SDS011;4615;51.340;8.288;2023-05-20T06:12:55;4.78;;;4.28;;
9160;SDS011;4615;51.340;8.288;2023-05-20T06:15:23;6.78;;;4.57;;
9160;SDS011;4615;51.340;8.288;2023-05-20T06:17:49;6.23;;;4.30;;
9160;SDS011;4615;51.340;8.288;2023-05-20T06:20:16;4.82;;;4.32;;
9160;SDS011;4615;51.340;8.288;2023-05-20T06:22:42;5.47;;;4.97;;
9160;SDS011;4615;51.340;8.288;2023-05-20T06:25:09;5.15;;;4.65;;
9160;SDS011;4615;51.340;8.288;2023-05-20T06:27:36;5.75;;;4.53;;
9160;SDS011;4615;51.340;8.288;2023-05-20T06:30:03;5.57;;;4.60;;
9160;SDS011;4615;51.340;8.288;2023-05-20T06:32:30;5.35;;;4.57;;
9160;SDS011;4615;51.340;8.288;2023-05-20T06:34:57;5.70;;;4.68;;
9160;SDS011;4615;51.340;8.288;2023-05-20T06:37:23;7.00;;;4.40;;
9160;SDS011;4615;51.340;8.288;2023-05-20T06:39:50;6.10;;;4.50;;
9160;SDS011;4615;51.340;8.288;2023-05-20T06:42:18;4.93;;;4.43;;
9160;SDS011;4615;51.340;8.288;2023-05-20T06:44:44;5.72;;;4.75;;
9160;SDS011;4615;51.340;8.288;2023-05-20T06:47:12;5.15;;;4.60;;
9160;SDS011;4615;51.340;8.288;2023-05-20T06:49:40;5.10;;;4.57;;
9160;SDS011;4615;51.340;8.288;2023-05-20T06:52:07;4.90;;;4.43;;
9160;SDS011;4615;51.340;8.288;2023-05-20T06:54:33;5.82;;;4.53;;
9160;SDS011;4615;51.340;8.288;2023-05-20T06:57:04;5.20;;;4.70;;
9160;SDS011;4615;51.340;8.288;2023-05-20T06:59:30;5.50;;;4.57;;
9160;SDS011;4615;51.340;8.288;2023-05-20T07:01:57;6.25;;;4.82;;
9160;SDS011;4615;51.340;8.288;2023-05-20T07:04:23;6.30;;;5.50;;
9160;SDS011;4615;51.340;8.288;2023-05-20T07:06:51;5.60;;;4.97;;
9160;SDS011;4615;51.340;8.288;2023-05-20T07:09:17;5.60;;;5.10;;
9160;SDS011;4615;51.340;8.288;2023-05-20T07:11:43;5.70;;;5.20;;
9160;SDS011;4615;51.340;8.288;2023-05-20T07:14:10;5.10;;;4.68;;
9160;SDS011;4615;51.340;8.288;2023-05-20T07:16:36;5.97;;;5.38;;
9160;SDS011;4615;51.340;8.288;2023-05-20T07:19:03;5.95;;;5.35;;
9160;SDS011;4615;51.340;8.288;2023-05-20T07:21:29;6.07;;;5.10;;
9160;SDS011;4615;51.340;8.288;2023-05-20T07:23:57;5.63;;;5.13;;
9160;SDS011;4615;51.340;8.288;2023-05-20T07:26:24;5.77;;;5.27;;
9160;SDS011;4615;51.340;8.288;2023-05-20T07:28:50;6.63;;;5.47;;
9160;SDS011;4615;51.340;8.288;2023-05-20T07:31:16;6.00;;;5.50;;
9160;SDS011;4615;51.340;8.288;2023-05-20T07:33:43;5.70;;;5.20;;
9160;SDS011;4615;51.340;8.288;2023-05-20T07:36:09;5.82;;;5.20;;
9160;SDS011;4615;51.340;8.288;2023-05-20T07:38:36;6.00;;;5.40;;
9160;SDS011;4615;51.340;8.288;2023-05-20T07:41:03;5.95;;;5.30;;
9160;SDS011;4615;51.340;8.288;2023-05-20T07:43:30;5.80;;;5.28;;
9160;SDS011;4615;51.340;8.288;2023-05-20T07:45:57;6.10;;;5.47;;
9160;SDS011;4615;51.340;8.288;2023-05-20T07:48:23;6.10;;;5.40;;
9160;SDS011;4615;51.340;8.288;2023-05-20T07:50:50;5.85;;;5.25;;
9160;SDS011;4615;51.340;8.288;2023-05-20T07:53:16;6.85;;;5.32;;
9160;SDS011;4615;51.340;8.288;2023-05-20T07:55:43;6.38;;;5.78;;
9160;SDS011;4615;51.340;8.288;2023-05-20T07:58:11;5.90;;;5.30;;
9160;SDS011;4615;51.340;8.288;2023-05-20T08:00:37;6.35;;;5.75;;
9160;SDS011;4615;51.340;8.288;2023-05-20T08:03:03;6.07;;;5.57;;
9160;SDS011;4615;51.340;8.288;2023-05-20T08:05:31;6.63;;;5.28;;
9160;SDS011;4615;51.340;8.288;2023-05-20T08:07:58;5.93;;;5.43;;
9160;SDS011;4615;51.340;8.288;2023-05-20T08:10:24;6.75;;;6.05;;
9160;SDS011;4615;51.340;8.288;2023-05-20T08:12:51;6.63;;;6.03;;
9160;SDS011;4615;51.340;8.288;2023-05-20T08:15:19;6.22;;;5.63;;
9160;SDS011;4615;51.340;8.288;2023-05-20T08:17:45;6.93;;;6.22;;
9160;SDS011;4615;51.340;8.288;2023-05-20T08:20:12;6.55;;;5.95;;
9160;SDS011;4615;51.340;8.288;2023-05-20T08:22:38;6.65;;;6.05;;
9160;SDS011;4615;51.340;8.288;2023-05-20T08:25:06;6.70;;;5.87;;
9160;SDS011;4615;51.340;8.288;2023-05-20T08:27:33;6.93;;;6.20;;
9160;SDS011;4615;51.340;8.288;2023-05-20T08:29:59;7.00;;;6.30;;
9160;SDS011;4615;51.340;8.288;2023-05-20T08:32:27;6.72;;;6.07;;
9160;SDS011;4615;51.340;8.288;2023-05-20T08:34:54;6.78;;;5.90;;
9160;SDS011;4615;51.340;8.288;2023-05-20T08:37:20;6.70;;;6.00;;
9160;SDS011;4615;51.340;8.288;2023-05-20T08:39:47;6.43;;;5.82;;
9160;SDS011;4615;51.340;8.288;2023-05-20T08:42:14;6.63;;;6.03;;
9160;SDS011;4615;51.340;8.288;2023-05-20T08:44:40;6.63;;;6.03;;
9160;SDS011;4615;51.340;8.288;2023-05-20T08:47:07;6.10;;;5.60;;
9160;SDS011;4615;51.340;8.288;2023-05-20T08:49:35;7.13;;;6.43;;
9160;SDS011;4615;51.340;8.288;2023-05-20T08:52:02;6.68;;;5.72;;
9160;SDS011;4615;51.340;8.288;2023-05-20T08:54:32;6.20;;;5.60;;
9160;SDS011;4615;51.340;8.288;2023-05-20T08:57:01;6.88;;;5.82;;
9160;SDS011;4615;51.340;8.288;2023-05-20T08:59:28;6.23;;;5.63;;
9160;SDS011;4615;51.340;8.288;2023-05-20T09:01:55;6.75;;;6.05;;
9160;SDS011;4615;51.340;8.288;2023-05-20T09:04:21;6.95;;;6.35;;
9160;SDS011;4615;51.340;8.288;2023-05-20T09:06:49;6.97;;;6.38;;
9160;SDS011;4615;51.340;8.288;2023-05-20T09:09:16;7.18;;;6.47;;
9160;SDS011;4615;51.340;8.288;2023-05-20T09:11:42;7.28;;;6.68;;
9160;SDS011;4615;51.340;8.288;2023-05-20T09:14:08;7.75;;;6.95;;
9160;SDS011;4615;51.340;8.288;2023-05-20T09:16:35;7.25;;;6.55;;
9160;SDS011;4615;51.340;8.288;2023-05-20T09:19:01;7.10;;;6.40;;
9160;SDS011;4615;51.340;8.288;2023-05-20T09:21:30;7.18;;;6.50;;
9160;SDS011;4615;51.340;8.288;2023-05-20T09:24:00;6.95;;;6.25;;
9160;SDS011;4615;51.340;8.288;2023-05-20T09:26:26;7.43;;;6.43;;
9160;SDS011;4615;51.340;8.288;2023-05-20T09:28:54;7.68;;;6.97;;
9160;SDS011;4615;51.340;8.288;2023-05-20T09:31:21;6.93;;;6.22;;
9160;SDS011;4615;51.340;8.288;2023-05-20T09:33:50;7.15;;;6.55;;
9160;SDS011;4615;51.340;8.288;2023-05-20T09:36:17;7.38;;;6.78;;
9160;SDS011;4615;51.340;8.288;2023-05-20T09:38:45;7.07;;;6.47;;
9160;SDS011;4615;51.340;8.288;2023-05-20T09:41:14;7.47;;;6.77;;
9160;SDS011;4615;51.340;8.288;2023-05-20T09:43:41;7.47;;;6.78;;
9160;SDS011;4615;51.340;8.288;2023-05-20T09:46:07;7.28;;;6.68;;
9160;SDS011;4615;51.340;8.288;2023-05-20T09:48:35;7.45;;;6.75;;
9160;SDS011;4615;51.340;8.288;2023-05-20T09:51:01;7.77;;;6.80;;
9160;SDS011;4615;51.340;8.288;2023-05-20T09:53:28;7.10;;;6.50;;
9160;SDS011;4615;51.340;8.288;2023-05-20T09:55:55;7.40;;;6.70;;
9160;SDS011;4615;51.340;8.288;2023-05-20T09:58:22;7.40;;;6.45;;
9160;SDS011;4615;51.340;8.288;2023-05-20T10:00:49;8.23;;;6.72;;
9160;SDS011;4615;51.340;8.288;2023-05-20T10:03:16;7.10;;;6.40;;
9160;SDS011;4615;51.340;8.288;2023-05-20T10:05:44;7.43;;;6.43;;
9160;SDS011;4615;51.340;8.288;2023-05-20T10:08:20;7.05;;;6.35;;
9160;SDS011;4615;51.340;8.288;2023-05-20T10:10:49;7.63;;;6.07;;
9160;SDS011;4615;51.340;8.288;2023-05-20T10:13:19;7.45;;;6.28;;
9160;SDS011;4615;51.340;8.288;2023-05-20T10:15:52;7.13;;;6.43;;
9160;SDS011;4615;51.340;8.288;2023-05-20T10:18:24;6.93;;;6.03;;
9160;SDS011;4615;51.340;8.288;2023-05-20T10:20:50;7.65;;;6.10;;
9160;SDS011;4615;51.340;8.288;2023-05-20T10:23:20;7.97;;;6.32;;
9160;SDS011;4615;51.340;8.288;2023-05-20T10:25:50;6.30;;;5.70;;
9160;SDS011;4615;51.340;8.288;2023-05-20T10:28:23;6.67;;;5.63;;
9160;SDS011;4615;51.340;8.288;2023-05-20T10:30:51;6.50;;;5.90;;
9160;SDS011;4615;51.340;8.288;2023-05-20T10:33:18;6.53;;;5.93;;
9160;SDS011;4615;51.340;8.288;2023-05-20T10:35:46;7.13;;;6.43;;
9160;SDS011;4615;51.340;8.288;2023-05-20T10:38:12;6.20;;;5.70;;
9160;SDS011;4615;51.340;8.288;2023-05-20T10:40:39;6.50;;;5.80;;
9160;SDS011;4615;51.340;8.288;2023-05-20T10:43:08;6.82;;;5.90;;
9160;SDS011;4615;51.340;8.288;2023-05-20T10:45:46;6.80;;;6.20;;
9160;SDS011;4615;51.340;8.288;2023-05-20T10:48:19;7.18;;;6.35;;
9160;SDS011;4615;51.340;8.288;2023-05-20T10:50:46;6.63;;;6.03;;
9160;SDS011;4615;51.340;8.288;2023-05-20T10:53:13;6.30;;;5.65;;
9160;SDS011;4615;51.340;8.288;2023-05-20T10:55:40;6.10;;;5.60;;
9160;SDS011;4615;51.340;8.288;2023-05-20T10:58:06;6.10;;;5.60;;
9160;SDS011;4615;51.340;8.288;2023-05-20T11:00:35;6.30;;;5.70;;
9160;SDS011;4615;51.340;8.288;2023-05-20T11:03:01;6.32;;;5.72;;
9160;SDS011;4615;51.340;8.288;2023-05-20T11:05:30;7.20;;;5.65;;
9160;SDS011;4615;51.340;8.288;2023-05-20T11:07:59;5.63;;;5.13;;
9160;SDS011;4615;51.340;8.288;2023-05-20T11:10:27;5.63;;;5.13;;
9160;SDS011;4615;51.340;8.288;2023-05-20T11:12:54;5.43;;;4.78;;
9160;SDS011;4615;51.340;8.288;2023-05-20T11:15:21;5.60;;;5.10;;
9160;SDS011;4615;51.340;8.288;2023-05-20T11:17:52;5.28;;;4.78;;
9160;SDS011;4615;51.340;8.288;2023-05-20T11:20:19;5.65;;;5.15;;
9160;SDS011;4615;51.340;8.288;2023-05-20T11:22:47;5.63;;;4.95;;
9160;SDS011;4615;51.340;8.288;2023-05-20T11:25:14;5.87;;;5.37;;
9160;SDS011;4615;51.340;8.288;2023-05-20T11:27:41;5.60;;;5.10;;
9160;SDS011;4615;51.340;8.288;2023-05-20T11:30:08;5.20;;;4.80;;
9160;SDS011;4615;51.340;8.288;2023-05-20T11:32:35;6.10;;;4.73;;
9160;SDS011;4615;51.340;8.288;2023-05-20T11:35:01;5.50;;;4.97;;
9160;SDS011;4615;51.340;8.288;2023-05-20T11:37:28;5.10;;;4.70;;
9160;SDS011;4615;51.340;8.288;2023-05-20T11:40:04;5.70;;;4.88;;
9160;SDS011;4615;51.340;8.288;2023-05-20T11:42:33;5.68;;;4.68;;
9160;SDS011;4615;51.340;8.288;2023-05-20T11:45:00;5.00;;;4.50;;
9160;SDS011;4615;51.340;8.288;2023-05-20T11:47:27;4.63;;;4.22;;
9160;SDS011;4615;51.340;8.288;2023-05-20T11:49:54;5.88;;;4.80;;
9160;SDS011;4615;51.340;8.288;2023-05-20T11:52:21;4.88;;;4.43;;
9160;SDS011;4615;51.340;8.288;2023-05-20T11:54:49;5.03;;;4.53;;
9160;SDS011;4615;51.340;8.288;2023-05-20T11:57:17;6.32;;;4.20;;
9160;SDS011;4615;51.340;8.288;2023-05-20T11:59:45;4.70;;;4.30;;
9160;SDS011;4615;51.340;8.288;2023-05-20T12:02:12;5.03;;;4.35;;
9160;SDS011;4615;51.340;8.288;2023-05-20T12:04:38;4.88;;;4.38;;
9160;SDS011;4615;51.340;8.288;2023-05-20T12:07:05;5.25;;;4.78;;
9160;SDS011;4615;51.340;8.288;2023-05-20T12:09:33;4.65;;;4.25;;
9160;SDS011;4615;51.340;8.288;2023-05-20T12:11:59;4.28;;;3.85;;
9160;SDS011;4615;51.340;8.288;2023-05-20T12:14:28;4.82;;;4.25;;
9160;SDS011;4615;51.340;8.288;2023-05-20T12:16:54;4.30;;;3.90;;
9160;SDS011;4615;51.340;8.288;2023-05-20T12:19:20;4.60;;;4.20;;
9160;SDS011;4615;51.340;8.288;2023-05-20T12:21:47;4.80;;;4.30;;
9160;SDS011;4615;51.340;8.288;2023-05-20T12:24:13;4.80;;;4.38;;
9160;SDS011;4615;51.340;8.288;2023-05-20T12:26:40;4.43;;;4.03;;
9160;SDS011;4615;51.340;8.288;2023-05-20T12:29:06;4.75;;;4.35;;
9160;SDS011;4615;51.340;8.288;2023-05-20T12:31:34;4.53;;;4.13;;
9160;SDS011;4615;51.340;8.288;2023-05-20T12:34:00;4.25;;;3.95;;
9160;SDS011;4615;51.340;8.288;2023-05-20T12:36:27;4.18;;;3.78;;
9160;SDS011;4615;51.340;8.288;2023-05-20T12:38:53;4.32;;;3.92;;
9160;SDS011;4615;51.340;8.288;2023-05-20T12:41:20;4.47;;;3.85;;
9160;SDS011;4615;51.340;8.288;2023-05-20T12:43:46;4.40;;;4.10;;
9160;SDS011;4615;51.340;8.288;2023-05-20T12:46:12;4.72;;;4.20;;
9160;SDS011;4615;51.340;8.288;2023-05-20T12:48:40;5.53;;;4.30;;
9160;SDS011;4615;51.340;8.288;2023-05-20T12:51:07;4.25;;;3.80;;
9160;SDS011;4615;51.340;8.288;2023-05-20T12:53:33;4.35;;;3.95;;
9160;SDS011;4615;51.340;8.288;2023-05-20T12:56:00;4.60;;;4.20;;
9160;SDS011;4615;51.340;8.288;2023-05-20T12:58:26;4.57;;;4.13;;
9160;SDS011;4615;51.340;8.288;2023-05-20T13:00:53;5.05;;;4.20;;
9160;SDS011;4615;51.340;8.288;2023-05-20T13:03:19;4.82;;;4.35;;
9160;SDS011;4615;51.340;8.288;2023-05-20T13:05:47;6.07;;;4.22;;
9160;SDS011;4615;51.340;8.288;2023-05-20T13:08:14;4.65;;;4.25;;
9160;SDS011;4615;51.340;8.288;2023-05-20T13:10:40;4.40;;;4.00;;
9160;SDS011;4615;51.340;8.288;2023-05-20T13:13:06;4.57;;;4.17;;
9160;SDS011;4615;51.340;8.288;2023-05-20T13:15:33;4.50;;;4.10;;
9160;SDS011;4615;51.340;8.288;2023-05-20T13:17:59;4.43;;;4.03;;
9160;SDS011;4615;51.340;8.288;2023-05-20T13:20:27;5.20;;;4.50;;
9160;SDS011;4615;51.340;8.288;2023-05-20T13:22:55;5.90;;;4.30;;
9160;SDS011;4615;51.340;8.288;2023-05-20T13:25:22;4.60;;;4.18;;
9160;SDS011;4615;51.340;8.288;2023-05-20T13:27:48;4.05;;;3.65;;
9160;SDS011;4615;51.340;8.288;2023-05-20T13:30:14;4.40;;;4.03;;
9160;SDS011;4615;51.340;8.288;2023-05-20T13:32:41;4.72;;;4.32;;
9160;SDS011;4615;51.340;8.288;2023-05-20T13:35:07;5.10;;;4.50;;
9160;SDS011;4615;51.340;8.288;2023-05-20T13:37:34;5.43;;;4.55;;
9160;SDS011;4615;51.340;8.288;2023-05-20T13:40:02;5.10;;;4.60;;
9160;SDS011;4615;51.340;8.288;2023-05-20T13:42:28;4.72;;;4.22;;
9160;SDS011;4615;51.340;8.288;2023-05-20T13:44:55;4.97;;;4.47;;
9160;SDS011;4615;51.340;8.288;2023-05-20T13:47:21;5.00;;;4.50;;
9160;SDS011;4615;51.340;8.288;2023-05-20T13:49:48;4.57;;;4.18;;
9160;SDS011;4615;51.340;8.288;2023-05-20T13:52:14;4.93;;;4.53;;
9160;SDS011;4615;51.340;8.288;2023-05-20T13:54:40;4.50;;;4.10;;
9160;SDS011;4615;51.340;8.288;2023-05-20T13:57:12;5.20;;;4.80;;
9160;SDS011;4615;51.340;8.288;2023-05-20T13:59:38;5.90;;;4.63;;
9160;SDS011;4615;51.340;8.288;2023-05-20T14:02:05;5.28;;;4.78;;
9160;SDS011;4615;51.340;8.288;2023-05-20T14:04:31;5.65;;;5.13;;
9160;SDS011;4615;51.340;8.288;2023-05-20T14:07:02;5.82;;;4.70;;
9160;SDS011;4615;51.340;8.288;2023-05-20T14:09:28;4.97;;;4.57;;
9160;SDS011;4615;51.340;8.288;2023-05-20T14:11:55;5.20;;;4.70;;
9160;SDS011;4615;51.340;8.288;2023-05-20T14:14:22;5.18;;;4.50;;
9160;SDS011;4615;51.340;8.288;2023-05-20T14:16:49;4.53;;;4.13;;
9160;SDS011;4615;51.340;8.288;2023-05-20T14:19:15;4.95;;;4.50;;
9160;SDS011;4615;51.340;8.288;2023-05-20T14:21:42;4.55;;;4.15;;
9160;SDS011;4615;51.340;8.288;2023-05-20T14:24:08;4.57;;;4.13;;
9160;SDS011;4615;51.340;8.288;2023-05-20T14:26:35;5.17;;;4.67;;
9160;SDS011;4615;51.340;8.288;2023-05-20T14:29:01;4.90;;;4.50;;
9160;SDS011;4615;51.340;8.288;2023-05-20T14:31:29;6.20;;;4.78;;
9160;SDS011;4615;51.340;8.288;2023-05-20T14:33:55;5.45;;;4.90;;
9160;SDS011;4615;51.340;8.288;2023-05-20T14:36:22;6.80;;;5.57;;
9160;SDS011;4615;51.340;8.288;2023-05-20T14:38:48;5.65;;;5.18;;
9160;SDS011;4615;51.340;8.288;2023-05-20T14:41:14;8.75;;;7.85;;
9160;SDS011;4615;51.340;8.288;2023-05-20T14:43:41;8.45;;;7.50;;
9160;SDS011;4615;51.340;8.288;2023-05-20T14:46:07;7.30;;;6.15;;
9160;SDS011;4615;51.340;8.288;2023-05-20T14:48:35;8.20;;;5.90;;
9160;SDS011;4615;51.340;8.288;2023-05-20T14:51:02;7.75;;;6.38;;
9160;SDS011;4615;51.340;8.288;2023-05-20T14:53:28;8.77;;;6.53;;
9160;SDS011;4615;51.340;8.288;2023-05-20T14:55:55;7.45;;;6.30;;
9160;SDS011;4615;51.340;8.288;2023-05-20T14:58:21;7.95;;;6.45;;
9160;SDS011;4615;51.340;8.288;2023-05-20T15:00:47;7.53;;;6.22;;
9160;SDS011;4615;51.340;8.288;2023-05-20T15:03:14;7.00;;;6.40;;
9160;SDS011;4615;51.340;8.288;2023-05-20T15:05:42;6.80;;;6.05;;
9160;SDS011;4615;51.340;8.288;2023-05-20T15:08:08;7.30;;;6.60;;
9160;SDS011;4615;51.340;8.288;2023-05-20T15:10:34;7.90;;;7.10;;
9160;SDS011;4615;51.340;8.288;2023-05-20T15:13:01;8.37;;;6.83;;